createdAt,value
2023-02-15T00:01:50.109Z,1.39
2023-02-15T00:04:57.126Z,1.46
2023-02-15T00:07:59.967Z,1.47
2023-02-15T00:11:07.986Z,1.38
2023-02-15T00:14:12.137Z,1.52
2023-02-15T00:17:15.769Z,1.51
2023-02-15T00:20:19.481Z,1.40
2023-02-15T00:23:22.506Z,1.11
2023-02-15T00:26:25.949Z,0.95
2023-02-15T00:29:31.922Z,0.92
2023-02-15T00:32:34.728Z,0.95
2023-02-15T00:35:38.126Z,0.89
2023-02-15T00:38:41.006Z,1.05
2023-02-15T00:41:53.390Z,1.06
2023-02-15T00:44:56.184Z,0.94
2023-02-15T00:47:59.221Z,0.88
2023-02-15T00:51:05.175Z,0.78
2023-02-15T00:54:08.717Z,0.61
2023-02-15T00:57:11.473Z,0.66
2023-02-15T01:00:14.986Z,0.63
2023-02-15T01:03:19.268Z,0.50
2023-02-15T01:06:23.382Z,0.57
2023-02-15T01:09:29.070Z,0.52
2023-02-15T01:12:32.321Z,0.59
2023-02-15T01:15:36.728Z,0.48
2023-02-15T01:18:40.502Z,0.54
2023-02-15T01:21:44.117Z,0.43
2023-02-15T01:24:50.344Z,0.43
2023-02-15T01:27:53.853Z,0.48
2023-02-15T01:30:58.209Z,0.57
2023-02-15T01:34:01.281Z,0.45
2023-02-15T01:37:04.754Z,0.43
2023-02-15T01:40:14.198Z,0.31
2023-02-15T01:43:20.305Z,0.33
2023-02-15T01:46:34.484Z,0.45
2023-02-15T01:49:44.376Z,0.58
2023-02-15T01:53:03.716Z,0.62
2023-02-15T01:56:29.863Z,0.78
2023-02-15T01:59:37.267Z,0.85
2023-02-15T02:02:46.716Z,0.51
2023-02-15T02:05:51.255Z,0.44
2023-02-15T02:08:56.199Z,0.28
2023-02-15T02:12:00.005Z,0.28
2023-02-15T02:15:03.233Z,0.51
2023-02-15T02:18:25.527Z,0.44
2023-02-15T02:22:03.522Z,0.42
2023-02-15T02:25:11.859Z,0.34
2023-02-15T02:28:26.995Z,0.39
2023-02-15T02:31:54.657Z,0.36
2023-02-15T02:35:03.832Z,0.16
2023-02-15T02:38:12.192Z,0.15
2023-02-15T02:41:33.746Z,0.23
2023-02-15T02:44:48.087Z,0.34
2023-02-15T02:47:55.795Z,0.40
2023-02-15T02:51:00.619Z,0.31
2023-02-15T02:54:06.780Z,0.33
2023-02-15T02:57:11.403Z,0.06
2023-02-15T03:00:16.799Z,-0.17
2023-02-15T03:03:38.863Z,-0.43
2023-02-15T03:06:50.094Z,-0.43
2023-02-15T03:09:56.076Z,-0.44
2023-02-15T03:12:59.629Z,-0.32
2023-02-15T03:16:24.205Z,-0.35
2023-02-15T03:19:37.114Z,-0.26
2023-02-15T03:22:51.949Z,-0.05
2023-02-15T03:26:01.836Z,0.05
2023-02-15T03:29:08.438Z,0.20
2023-02-15T03:32:15.865Z,-0.11
2023-02-15T03:35:28.175Z,0.00
2023-02-15T03:38:48.953Z,0.10
2023-02-15T03:41:58.170Z,0.16
2023-02-15T03:45:10.589Z,0.22
2023-02-15T03:48:13.854Z,-0.09
2023-02-15T03:55:04.837Z,-0.42
2023-02-15T03:58:29.438Z,-0.47
2023-02-15T04:02:04.347Z,-0.39
2023-02-15T04:05:07.690Z,-0.45
2023-02-15T04:08:11.198Z,-0.49
2023-02-15T04:11:14.613Z,-0.58
2023-02-15T04:14:36.147Z,-0.57
2023-02-15T04:17:39.424Z,-0.56
2023-02-15T04:21:04.083Z,-0.54
2023-02-15T04:24:26.758Z,-0.63
2023-02-15T04:27:29.481Z,-0.55
2023-02-15T04:30:34.834Z,-0.70
2023-02-15T04:33:37.859Z,-0.80
2023-02-15T04:36:44.242Z,-0.77
2023-02-15T04:39:46.894Z,-0.71
2023-02-15T04:42:52.518Z,-0.72
2023-02-15T04:46:00.154Z,-0.72
2023-02-15T04:49:05.304Z,-0.73
2023-02-15T04:55:29.919Z,-0.70
2023-02-15T04:58:48.442Z,-0.67
2023-02-15T05:01:51.667Z,-0.76
2023-02-15T05:04:54.742Z,-0.98
2023-02-15T05:07:58.283Z,-1.03
2023-02-15T05:11:01.262Z,-1.05
2023-02-15T05:14:05.053Z,-0.87
2023-02-15T05:17:07.833Z,-0.85
2023-02-15T05:20:11.471Z,-0.91
2023-02-15T05:23:14.247Z,-0.94
2023-02-15T05:26:39.244Z,-0.89
2023-02-15T05:29:41.954Z,-0.97
2023-02-15T05:32:46.434Z,-1.08
2023-02-15T05:39:38.136Z,-1.03
2023-02-15T05:42:43.416Z,-0.73
2023-02-15T05:45:51.061Z,-0.95
2023-02-15T05:48:54.157Z,-0.82
2023-02-15T05:52:10.404Z,-0.86
2023-02-15T05:55:13.568Z,-0.91
2023-02-15T05:58:16.652Z,-0.75
2023-02-15T06:01:25.170Z,-0.68
2023-02-15T06:04:30.766Z,-0.69
2023-02-15T06:07:34.672Z,-0.77
2023-02-15T06:10:41.199Z,-0.65
2023-02-15T06:13:43.883Z,-0.22
2023-02-15T06:16:47.406Z,0.17
2023-02-15T06:20:25.236Z,0.60
2023-02-15T06:23:29.752Z,1.01
2023-02-15T06:26:47.291Z,1.66
2023-02-15T06:29:50.932Z,1.79
2023-02-15T06:32:55.831Z,1.72
2023-02-15T06:36:38.465Z,2.02
2023-02-15T06:39:47.018Z,2.50
2023-02-15T06:42:55.102Z,3.10
2023-02-15T06:45:59.402Z,4.59
2023-02-15T06:49:02.288Z,3.89
2023-02-15T06:52:06.000Z,3.59
2023-02-15T06:55:11.961Z,4.04
2023-02-15T06:58:14.979Z,3.53
2023-02-15T07:01:17.616Z,3.94
2023-02-15T07:04:20.690Z,4.02
2023-02-15T07:07:26.441Z,4.67
2023-02-15T07:10:30.155Z,4.63
2023-02-15T07:13:33.272Z,5.16
2023-02-15T07:16:36.826Z,5.25
2023-02-15T07:19:39.472Z,5.42
2023-02-15T07:22:42.604Z,5.87
2023-02-15T07:25:45.644Z,5.90
2023-02-15T07:29:12.418Z,5.75
2023-02-15T07:32:16.639Z,6.09
2023-02-15T07:35:21.578Z,6.40
2023-02-15T07:38:26.338Z,6.41
2023-02-15T07:41:31.779Z,6.83
2023-02-15T07:53:10.958Z,7.01
2023-02-15T07:56:15.541Z,7.57
2023-02-15T07:59:18.726Z,8.01
2023-02-15T08:02:21.618Z,7.93
2023-02-15T08:05:24.898Z,8.60
2023-02-15T08:08:33.449Z,8.88
2023-02-15T08:11:40.999Z,9.34
2023-02-15T12:40:08.152Z,12.49
2023-02-15T12:43:37.471Z,12.17
2023-02-15T12:46:40.869Z,11.62
2023-02-15T12:50:23.488Z,11.11
2023-02-15T12:53:37.421Z,11.10
2023-02-15T12:56:43.518Z,10.84
2023-02-15T13:00:32.741Z,10.54
2023-02-15T13:04:00.160Z,10.20
2023-02-15T13:07:04.338Z,10.12
2023-02-15T13:10:24.952Z,10.52
2023-02-15T13:13:35.682Z,10.50
2023-02-15T13:16:42.510Z,10.34
2023-02-15T13:20:52.703Z,10.24
2023-02-15T13:24:59.913Z,10.08
2023-02-15T13:28:05.698Z,10.22
2023-02-15T13:31:18.711Z,9.80
2023-02-15T13:34:33.747Z,9.96
2023-02-15T13:38:25.888Z,9.68
2023-02-15T13:41:37.628Z,9.67
2023-02-15T13:44:55.469Z,9.57
2023-02-15T13:48:46.908Z,9.75
2023-02-15T13:52:08.929Z,9.61
2023-02-15T13:55:35.526Z,9.44
2023-02-15T13:59:46.214Z,9.62
2023-02-15T14:03:24.248Z,9.57
2023-02-15T14:06:48.827Z,9.51
2023-02-15T14:10:00.174Z,9.30
2023-02-15T14:13:25.704Z,9.34
2023-02-15T14:16:41.266Z,9.20
2023-02-15T14:19:51.708Z,9.20
2023-02-15T14:23:00.771Z,9.41
2023-02-15T14:26:24.002Z,9.31
2023-02-15T14:30:24.418Z,9.48
2023-02-15T14:33:39.364Z,9.33
2023-02-15T14:36:47.145Z,9.37
2023-02-15T14:40:30.191Z,9.28
2023-02-15T14:44:08.128Z,9.44
2023-02-15T14:47:23.480Z,9.53
2023-02-15T14:50:32.239Z,9.31
2023-02-15T14:53:40.427Z,9.15
2023-02-15T14:56:45.358Z,9.54
2023-02-15T14:59:53.368Z,9.01
2023-02-15T15:02:56.189Z,8.91
2023-02-15T15:06:05.470Z,8.76
2023-02-15T15:09:28.269Z,8.65
2023-02-15T15:12:33.982Z,8.54
2023-02-15T15:15:47.437Z,8.50
2023-02-15T15:18:50.573Z,8.61
2023-02-15T15:21:54.515Z,8.45
2023-02-15T15:24:57.437Z,8.29
2023-02-15T15:28:00.227Z,8.58
2023-02-15T15:31:26.583Z,8.33
2023-02-15T15:34:45.001Z,8.14
2023-02-15T15:38:13.033Z,8.23
2023-02-15T15:41:40.895Z,8.32
2023-02-15T15:45:15.984Z,8.12
2023-02-15T15:48:21.825Z,7.97
2023-02-15T15:51:32.468Z,7.91
2023-02-15T15:54:39.782Z,7.74
2023-02-15T15:57:45.355Z,7.64
2023-02-15T16:00:52.766Z,7.62
2023-02-15T16:03:58.298Z,7.48
2023-02-15T16:07:25.203Z,7.31
2023-02-15T16:10:33.736Z,7.25
2023-02-15T16:13:37.637Z,7.19
2023-02-15T16:47:33.410Z,6.41
2023-02-15T17:12:44.592Z,6.18
2023-02-15T17:15:59.412Z,6.03
2023-02-15T17:19:42.650Z,6.02
2023-02-15T17:22:45.664Z,5.98
2023-02-15T17:25:52.912Z,5.88
2023-02-15T17:29:00.441Z,5.73
2023-02-15T17:32:06.331Z,5.63
2023-02-15T17:35:25.853Z,5.61
2023-02-15T17:38:29.411Z,5.62
2023-02-15T17:41:35.588Z,5.65
2023-02-15T17:44:41.326Z,5.60
2023-02-15T17:47:47.018Z,5.46
2023-02-15T17:50:51.354Z,5.38
2023-02-15T17:54:14.097Z,5.38
2023-02-15T17:57:19.438Z,5.32
2023-02-15T18:00:43.635Z,5.34
2023-02-15T18:04:10.738Z,5.19
2023-02-15T18:07:32.252Z,5.22
2023-02-15T18:10:54.422Z,5.19
2023-02-15T18:14:02.922Z,5.22
2023-02-15T18:17:11.463Z,5.12
2023-02-15T18:20:19.826Z,5.15
2023-02-15T18:23:26.929Z,5.04
2023-02-15T18:26:33.252Z,5.02
2023-02-15T18:29:38.371Z,5.07
2023-02-15T18:32:44.374Z,4.94
2023-02-15T18:35:50.461Z,4.93
2023-02-15T18:38:54.348Z,4.93
2023-02-15T18:42:01.198Z,4.87
2023-02-15T18:45:21.085Z,4.82
2023-02-15T18:48:24.315Z,4.79
2023-02-15T18:51:27.239Z,4.74
2023-02-15T18:54:30.674Z,4.62
2023-02-15T18:57:35.043Z,4.61
2023-02-15T19:00:38.907Z,4.56
2023-02-15T19:03:54.592Z,4.66
2023-02-15T19:06:58.609Z,4.60
2023-02-15T19:10:04.699Z,4.58
2023-02-15T19:13:13.014Z,4.63
2023-02-15T19:16:42.730Z,4.54
2023-02-15T19:19:54.807Z,4.55
2023-02-15T19:23:00.557Z,4.42
2023-02-15T19:26:06.085Z,4.48
2023-02-15T19:29:13.556Z,4.42
2023-02-15T19:32:17.280Z,4.21
2023-02-15T19:35:24.477Z,4.23
2023-02-15T19:38:36.610Z,4.25
2023-02-15T19:41:42.717Z,4.13
2023-02-15T19:44:46.867Z,4.03
2023-02-15T19:47:51.857Z,4.07
2023-02-15T19:50:58.612Z,4.43
2023-02-15T19:54:01.783Z,4.23
2023-02-15T19:57:05.729Z,4.13
2023-02-15T20:00:22.050Z,4.10
2023-02-15T20:03:25.930Z,4.13
2023-02-15T20:06:29.523Z,3.94
2023-02-15T20:09:40.991Z,3.86
2023-02-15T20:12:44.865Z,3.81
2023-02-15T20:15:50.399Z,3.69
2023-02-15T20:18:53.919Z,3.61
2023-02-15T20:22:02.474Z,3.66
2023-02-15T20:25:05.932Z,3.75
2023-02-15T20:28:18.371Z,3.72
2023-02-15T20:31:22.500Z,3.50
2023-02-15T21:41:57.263Z,2.80
2023-02-15T21:45:20.117Z,2.58
2023-02-15T21:48:25.040Z,2.49
2023-02-15T21:51:49.334Z,2.45
2023-02-15T21:55:01.214Z,2.42
2023-02-15T21:58:05.455Z,2.38
2023-02-15T22:01:20.982Z,2.42
2023-02-15T22:04:29.954Z,2.49
2023-02-15T22:07:32.987Z,2.50
2023-02-15T22:11:57.941Z,2.24
2023-02-15T23:42:34.762Z,1.66
2023-02-15T23:45:42.196Z,1.50
2023-02-15T23:48:45.091Z,1.52
2023-02-15T23:51:54.015Z,1.61
2023-02-15T23:54:56.901Z,1.63
2023-02-15T23:58:00.019Z,1.62
